WZZ2604 EGLL-EDDF
Flight info
| Callsign | WZZ2604 |
|---|---|
| Flight time | 1h 18m |
| Altitude | 35000 |
| Route | BPK Q295 MATCH DCT REDFA DCT TACHA DCT NOLRU DCT DIXAT DIXAT1A |
| Aircraft | A20N/M-SDE2E3FGHIRWXY/LB1 |
Departure
| Time | 2026-05-07 16:13 |
|---|---|
| Airport | London Heathrow Airport (EGLL) |
Arrival
| Time | 2026-05-07 17:31 |
|---|---|
| Airport | Frankfurt Main Airport (EDDF) |
| Time | Latitude | Longitude | Altitude | Speed | Heading |
|---|---|---|---|---|---|
| 2026-05-07 15:38 | 51.47187 | -0.48599 | 86 ft | 0 kts | 269° |
| 2026-05-07 15:59 | 51.47187 | -0.48598 | 86 ft | 2 kts | 269° |
| 2026-05-07 15:59 | 51.47188 | -0.48575 | 89 ft | 2 kts | 269° |
| 2026-05-07 16:00 | 51.47188 | -0.48547 | 86 ft | 3 kts | 259° |
| 2026-05-07 16:00 | 51.47195 | -0.48514 | 90 ft | 3 kts | 237° |
| 2026-05-07 16:00 | 51.47210 | -0.48487 | 91 ft | 3 kts | 214° |
| 2026-05-07 16:00 | 51.47229 | -0.48472 | 88 ft | 3 kts | 191° |
| 2026-05-07 16:01 | 51.47237 | -0.48470 | 90 ft | 0 kts | 184° |
| 2026-05-07 16:03 | 51.47234 | -0.48470 | 88 ft | 2 kts | 184° |
| 2026-05-07 16:03 | 51.47186 | -0.48472 | 90 ft | 12 kts | 180° |
| 2026-05-07 16:04 | 51.47069 | -0.48470 | 87 ft | 20 kts | 179° |
| 2026-05-07 16:04 | 51.46937 | -0.48470 | 88 ft | 8 kts | 180° |
| 2026-05-07 16:04 | 51.46935 | -0.48470 | 88 ft | 0 kts | 180° |
| 2026-05-07 16:07 | 51.46898 | -0.48470 | 89 ft | 14 kts | 180° |
| 2026-05-07 16:08 | 51.46755 | -0.48466 | 86 ft | 27 kts | 179° |
| 2026-05-07 16:08 | 51.46617 | -0.48466 | 86 ft | 12 kts | 180° |
| 2026-05-07 16:08 | 51.46601 | -0.48466 | 86 ft | 0 kts | 180° |
| 2026-05-07 16:09 | 51.46591 | -0.48466 | 86 ft | 4 kts | 180° |
| 2026-05-07 16:10 | 51.46521 | -0.48475 | 86 ft | 17 kts | 187° |
| 2026-05-07 16:10 | 51.46479 | -0.48426 | 89 ft | 7 kts | 102° |
| 2026-05-07 16:10 | 51.46479 | -0.48418 | 89 ft | 0 kts | 92° |
| 2026-05-07 16:12 | 51.46479 | -0.48280 | 88 ft | 40 kts | 90° |
| 2026-05-07 16:13 | 51.46483 | -0.47456 | 87 ft | 105 kts | 90° |
| 2026-05-07 16:13 | 51.46487 | -0.46015 | 88 ft | 152 kts | 90° |
| 2026-05-07 16:13 | 51.46497 | -0.44295 | 544 ft | 158 kts | 89° |
| 2026-05-07 16:13 | 51.46523 | -0.42466 | 1141 ft | 165 kts | 90° |
| 2026-05-07 16:14 | 51.46793 | -0.40682 | 1732 ft | 170 kts | 59° |
| 2026-05-07 16:14 | 51.47560 | -0.39178 | 2265 ft | 181 kts | 49° |
| 2026-05-07 16:14 | 51.48423 | -0.37578 | 2661 ft | 199 kts | 50° |
| 2026-05-07 16:14 | 51.49372 | -0.35780 | 3035 ft | 223 kts | 50° |
| 2026-05-07 16:15 | 51.50421 | -0.33784 | 3587 ft | 244 kts | 50° |
| 2026-05-07 16:15 | 51.51511 | -0.31557 | 4218 ft | 262 kts | 56° |
| 2026-05-07 16:15 | 51.52388 | -0.28947 | 5066 ft | 271 kts | 67° |
| 2026-05-07 16:15 | 51.53080 | -0.26116 | 5182 ft | 271 kts | 70° |
| 2026-05-07 16:16 | 51.53722 | -0.23280 | 5295 ft | 269 kts | 71° |
| 2026-05-07 16:16 | 51.54346 | -0.20444 | 5404 ft | 270 kts | 69° |
| 2026-05-07 16:16 | 51.55396 | -0.17983 | 5672 ft | 275 kts | 41° |
| 2026-05-07 16:16 | 51.57058 | -0.16475 | 5833 ft | 273 kts | 15° |
| 2026-05-07 16:17 | 51.58935 | -0.16192 | 5954 ft | 274 kts | 359° |
| 2026-05-07 16:17 | 51.60849 | -0.16199 | 6019 ft | 275 kts | 1° |
| 2026-05-07 16:17 | 51.62749 | -0.15944 | 6025 ft | 274 kts | 7° |
| 2026-05-07 16:17 | 51.64626 | -0.15395 | 6026 ft | 274 kts | 12° |
| 2026-05-07 16:18 | 51.66230 | -0.14764 | 6027 ft | 275 kts | 14° |
| 2026-05-07 16:18 | 51.68013 | -0.13969 | 6028 ft | 275 kts | 15° |
| 2026-05-07 16:18 | 51.69854 | -0.13106 | 6026 ft | 275 kts | 16° |
| 2026-05-07 16:18 | 51.71685 | -0.12237 | 6026 ft | 274 kts | 16° |
| 2026-05-07 16:19 | 51.73476 | -0.11187 | 6018 ft | 275 kts | 31° |
| 2026-05-07 16:19 | 51.74840 | -0.09042 | 6245 ft | 278 kts | 60° |
| 2026-05-07 16:19 | 51.75420 | -0.06097 | 7069 ft | 277 kts | 83° |
| 2026-05-07 16:19 | 51.75671 | -0.03032 | 8036 ft | 279 kts | 84° |
| 2026-05-07 16:20 | 51.75910 | 0.00107 | 8946 ft | 285 kts | 84° |
| 2026-05-07 16:20 | 51.76158 | 0.03316 | 9850 ft | 291 kts | 84° |
| 2026-05-07 16:20 | 51.76420 | 0.06594 | 10569 ft | 302 kts | 84° |
| 2026-05-07 16:20 | 51.76704 | 0.10087 | 10915 ft | 325 kts | 84° |
| 2026-05-07 16:21 | 51.77010 | 0.13814 | 11351 ft | 342 kts | 84° |
| 2026-05-07 16:21 | 51.77327 | 0.17647 | 12164 ft | 346 kts | 84° |
| 2026-05-07 16:21 | 51.77646 | 0.21513 | 13006 ft | 349 kts | 84° |
| 2026-05-07 16:21 | 51.78000 | 0.25418 | 13831 ft | 354 kts | 80° |
| 2026-05-07 16:22 | 51.78604 | 0.29310 | 14540 ft | 359 kts | 77° |
| 2026-05-07 16:22 | 51.79239 | 0.33246 | 15218 ft | 364 kts | 77° |
| 2026-05-07 16:22 | 51.79869 | 0.37188 | 15892 ft | 369 kts | 77° |
| 2026-05-07 16:22 | 51.80512 | 0.41232 | 16558 ft | 374 kts | 77° |
| 2026-05-07 16:23 | 51.81162 | 0.45334 | 17262 ft | 378 kts | 77° |
| 2026-05-07 16:23 | 51.81818 | 0.49479 | 17934 ft | 383 kts | 76° |
| 2026-05-07 16:23 | 51.82481 | 0.53679 | 18573 ft | 387 kts | 77° |
| 2026-05-07 16:23 | 51.83150 | 0.57922 | 19152 ft | 391 kts | 76° |
| 2026-05-07 16:24 | 51.83823 | 0.62204 | 19764 ft | 394 kts | 76° |
| 2026-05-07 16:24 | 51.84499 | 0.66516 | 20361 ft | 398 kts | 76° |
| 2026-05-07 16:24 | 51.85182 | 0.70880 | 20931 ft | 402 kts | 76° |
| 2026-05-07 16:24 | 51.85869 | 0.75285 | 21528 ft | 405 kts | 76° |
| 2026-05-07 16:25 | 51.86559 | 0.79723 | 22100 ft | 409 kts | 76° |
| 2026-05-07 16:25 | 51.87254 | 0.84208 | 22669 ft | 413 kts | 76° |
| 2026-05-07 16:25 | 51.87955 | 0.88740 | 23224 ft | 416 kts | 76° |
| 2026-05-07 16:25 | 51.88658 | 0.93298 | 23757 ft | 420 kts | 76° |
| 2026-05-07 16:26 | 51.89367 | 0.97906 | 24247 ft | 423 kts | 76° |
| 2026-05-07 16:26 | 51.90077 | 1.02534 | 24757 ft | 425 kts | 76° |
| 2026-05-07 16:26 | 51.90789 | 1.07190 | 25224 ft | 427 kts | 77° |
| 2026-05-07 16:26 | 51.91503 | 1.11868 | 25674 ft | 430 kts | 77° |
| 2026-05-07 16:27 | 51.92213 | 1.16535 | 26133 ft | 433 kts | 77° |
| 2026-05-07 16:27 | 51.92943 | 1.21347 | 26565 ft | 436 kts | 77° |
| 2026-05-07 16:27 | 51.93666 | 1.26126 | 27004 ft | 438 kts | 77° |
| 2026-05-07 16:27 | 51.94381 | 1.30932 | 27419 ft | 441 kts | 79° |
| 2026-05-07 16:28 | 51.94666 | 1.35804 | 27812 ft | 441 kts | 93° |
| 2026-05-07 16:28 | 51.94389 | 1.40767 | 28201 ft | 443 kts | 97° |
| 2026-05-07 16:28 | 51.94036 | 1.45746 | 28579 ft | 445 kts | 98° |
| 2026-05-07 16:28 | 51.93677 | 1.50718 | 29053 ft | 444 kts | 98° |
| 2026-05-07 16:29 | 51.93314 | 1.55724 | 29314 ft | 449 kts | 98° |
| 2026-05-07 16:29 | 51.92949 | 1.60773 | 29643 ft | 452 kts | 98° |
| 2026-05-07 16:29 | 51.92581 | 1.65853 | 30008 ft | 454 kts | 98° |
| 2026-05-07 16:29 | 51.92211 | 1.70941 | 30324 ft | 456 kts | 98° |
| 2026-05-07 16:30 | 51.91835 | 1.76051 | 30624 ft | 458 kts | 98° |
| 2026-05-07 16:30 | 51.91454 | 1.81192 | 30921 ft | 460 kts | 98° |
| 2026-05-07 16:30 | 51.91068 | 1.86353 | 31237 ft | 462 kts | 98° |
| 2026-05-07 16:30 | 51.90680 | 1.91516 | 31615 ft | 462 kts | 98° |
| 2026-05-07 16:31 | 51.90291 | 1.96667 | 32008 ft | 461 kts | 98° |
| 2026-05-07 16:31 | 51.89898 | 2.01830 | 32371 ft | 461 kts | 98° |
| 2026-05-07 16:31 | 51.89506 | 2.06948 | 32755 ft | 460 kts | 98° |
| 2026-05-07 16:31 | 51.89108 | 2.12119 | 33138 ft | 460 kts | 98° |
| 2026-05-07 16:32 | 51.88716 | 2.17179 | 33506 ft | 459 kts | 98° |
| 2026-05-07 16:32 | 51.88317 | 2.22304 | 33869 ft | 458 kts | 98° |
| 2026-05-07 16:32 | 51.87917 | 2.27416 | 34190 ft | 458 kts | 98° |
| 2026-05-07 16:32 | 51.87515 | 2.32520 | 34456 ft | 458 kts | 98° |
| 2026-05-07 16:33 | 51.87110 | 2.37631 | 34707 ft | 458 kts | 98° |
| 2026-05-07 16:33 | 51.86703 | 2.42738 | 34951 ft | 458 kts | 98° |
| 2026-05-07 16:33 | 51.86292 | 2.47867 | 35042 ft | 460 kts | 98° |
| 2026-05-07 16:34 | 51.85464 | 2.58107 | 35093 ft | 458 kts | 98° |
| 2026-05-07 16:34 | 51.84630 | 2.68319 | 35091 ft | 458 kts | 98° |
| 2026-05-07 16:35 | 51.83786 | 2.78542 | 35090 ft | 458 kts | 99° |
| 2026-05-07 16:35 | 51.82934 | 2.88749 | 35090 ft | 458 kts | 99° |
| 2026-05-07 16:36 | 51.82072 | 2.98956 | 35091 ft | 459 kts | 99° |
| 2026-05-07 16:36 | 51.81202 | 3.09159 | 35087 ft | 459 kts | 99° |
| 2026-05-07 16:37 | 51.80321 | 3.19384 | 35086 ft | 459 kts | 99° |
| 2026-05-07 16:37 | 51.79436 | 3.29545 | 35095 ft | 460 kts | 99° |
| 2026-05-07 16:38 | 51.78538 | 3.39759 | 35091 ft | 460 kts | 99° |
| 2026-05-07 16:38 | 51.77629 | 3.49983 | 35081 ft | 460 kts | 99° |
| 2026-05-07 16:39 | 51.76711 | 3.60201 | 35088 ft | 460 kts | 99° |
| 2026-05-07 16:39 | 51.75784 | 3.70425 | 35077 ft | 460 kts | 99° |
| 2026-05-07 16:40 | 51.74848 | 3.80651 | 35086 ft | 460 kts | 99° |
| 2026-05-07 16:40 | 51.73903 | 3.90859 | 35081 ft | 460 kts | 99° |
| 2026-05-07 16:41 | 51.72950 | 4.01063 | 35082 ft | 460 kts | 99° |
| 2026-05-07 16:41 | 51.71987 | 4.11280 | 35081 ft | 460 kts | 99° |
| 2026-05-07 16:42 | 51.71015 | 4.21482 | 35083 ft | 460 kts | 100° |
| 2026-05-07 16:42 | 51.70035 | 4.31675 | 35081 ft | 460 kts | 100° |
| 2026-05-07 16:43 | 51.69051 | 4.41819 | 35079 ft | 460 kts | 100° |
| 2026-05-07 16:43 | 51.68055 | 4.51997 | 35071 ft | 460 kts | 100° |
| 2026-05-07 16:44 | 51.67049 | 4.62171 | 35076 ft | 459 kts | 100° |
| 2026-05-07 16:44 | 51.66034 | 4.72342 | 35081 ft | 459 kts | 100° |
| 2026-05-07 16:45 | 51.65020 | 4.82420 | 35082 ft | 459 kts | 100° |
| 2026-05-07 16:45 | 51.63991 | 4.92553 | 35079 ft | 459 kts | 100° |
| 2026-05-07 16:46 | 51.62953 | 5.02681 | 35079 ft | 458 kts | 101° |
| 2026-05-07 16:46 | 51.61902 | 5.12811 | 35079 ft | 460 kts | 100° |
| 2026-05-07 16:47 | 51.60923 | 5.23065 | 35076 ft | 461 kts | 100° |
| 2026-05-07 16:47 | 51.59821 | 5.33168 | 35072 ft | 458 kts | 101° |
| 2026-05-07 16:48 | 51.58705 | 5.43279 | 35078 ft | 459 kts | 101° |
| 2026-05-07 16:48 | 51.57618 | 5.53381 | 35075 ft | 458 kts | 101° |
| 2026-05-07 16:49 | 51.56536 | 5.63419 | 35081 ft | 459 kts | 101° |
| 2026-05-07 16:49 | 51.55437 | 5.73527 | 35081 ft | 459 kts | 101° |
| 2026-05-07 16:50 | 51.54328 | 5.83623 | 35073 ft | 459 kts | 101° |
| 2026-05-07 16:50 | 51.53213 | 5.93706 | 35052 ft | 459 kts | 101° |
| 2026-05-07 16:51 | 51.52089 | 6.03784 | 35053 ft | 459 kts | 101° |
| 2026-05-07 16:51 | 51.50960 | 6.13873 | 35054 ft | 459 kts | 101° |
| 2026-05-07 16:52 | 51.49465 | 6.23796 | 35053 ft | 457 kts | 109° |
| 2026-05-07 16:52 | 51.47190 | 6.33242 | 35050 ft | 457 kts | 112° |
| 2026-05-07 16:53 | 51.44866 | 6.42716 | 35054 ft | 457 kts | 112° |
| 2026-05-07 16:53 | 51.42537 | 6.52189 | 35052 ft | 457 kts | 112° |
| 2026-05-07 16:54 | 51.40196 | 6.61644 | 35054 ft | 458 kts | 112° |
| 2026-05-07 16:54 | 51.37837 | 6.71125 | 35049 ft | 458 kts | 113° |
| 2026-05-07 16:55 | 51.35472 | 6.80591 | 34787 ft | 458 kts | 112° |
| 2026-05-07 16:55 | 51.34287 | 6.85315 | 34260 ft | 459 kts | 112° |
| 2026-05-07 16:55 | 51.33092 | 6.90070 | 33426 ft | 462 kts | 112° |
| 2026-05-07 16:55 | 51.31893 | 6.94835 | 32696 ft | 461 kts | 112° |
| 2026-05-07 16:56 | 51.30712 | 6.99518 | 31926 ft | 461 kts | 112° |
| 2026-05-07 16:56 | 51.29491 | 7.04346 | 31184 ft | 461 kts | 112° |
| 2026-05-07 16:56 | 51.26546 | 7.13181 | 30130 ft | 448 kts | 131° |
| 2026-05-07 16:57 | 51.24327 | 7.16606 | 29533 ft | 440 kts | 144° |
| 2026-05-07 16:57 | 51.21739 | 7.19104 | 29010 ft | 432 kts | 155° |
| 2026-05-07 16:57 | 51.19056 | 7.21199 | 28473 ft | 426 kts | 155° |
| 2026-05-07 16:57 | 51.16412 | 7.23277 | 27943 ft | 421 kts | 155° |
| 2026-05-07 16:58 | 51.14682 | 7.24641 | 27603 ft | 418 kts | 155° |
| 2026-05-07 16:58 | 51.11231 | 7.27368 | 26917 ft | 411 kts | 155° |
| 2026-05-07 16:58 | 51.09546 | 7.28728 | 26558 ft | 409 kts | 154° |
| 2026-05-07 16:58 | 51.07037 | 7.30799 | 26068 ft | 405 kts | 154° |
| 2026-05-07 16:59 | 51.04551 | 7.32864 | 25565 ft | 401 kts | 154° |
| 2026-05-07 16:59 | 51.02090 | 7.34906 | 25054 ft | 397 kts | 154° |
| 2026-05-07 16:59 | 50.99653 | 7.36923 | 24558 ft | 394 kts | 154° |
| 2026-05-07 16:59 | 50.97230 | 7.38921 | 24061 ft | 391 kts | 154° |
| 2026-05-07 17:00 | 50.94824 | 7.40901 | 23551 ft | 388 kts | 155° |
| 2026-05-07 17:00 | 50.92433 | 7.42865 | 23021 ft | 384 kts | 155° |
| 2026-05-07 17:00 | 50.90072 | 7.44801 | 22533 ft | 380 kts | 155° |
| 2026-05-07 17:00 | 50.87733 | 7.46716 | 22054 ft | 376 kts | 155° |
| 2026-05-07 17:01 | 50.85421 | 7.48606 | 21551 ft | 373 kts | 154° |
| 2026-05-07 17:01 | 50.83129 | 7.50478 | 21078 ft | 369 kts | 154° |
| 2026-05-07 17:01 | 50.80854 | 7.52334 | 20597 ft | 366 kts | 154° |
| 2026-05-07 17:01 | 50.78600 | 7.54171 | 20111 ft | 363 kts | 154° |
| 2026-05-07 17:02 | 50.76319 | 7.56026 | 19643 ft | 380 kts | 154° |
| 2026-05-07 17:02 | 50.73904 | 7.57984 | 19128 ft | 397 kts | 154° |
| 2026-05-07 17:02 | 50.71431 | 7.59991 | 18598 ft | 402 kts | 154° |
| 2026-05-07 17:02 | 50.68960 | 7.61997 | 18030 ft | 401 kts | 154° |
| 2026-05-07 17:03 | 50.66501 | 7.63992 | 17546 ft | 394 kts | 154° |
| 2026-05-07 17:03 | 50.64087 | 7.65948 | 17074 ft | 386 kts | 154° |
| 2026-05-07 17:03 | 50.61718 | 7.67864 | 16607 ft | 379 kts | 154° |
| 2026-05-07 17:03 | 50.59388 | 7.69747 | 16147 ft | 373 kts | 154° |
| 2026-05-07 17:04 | 50.57128 | 7.71570 | 15751 ft | 366 kts | 154° |
| 2026-05-07 17:04 | 50.54872 | 7.73386 | 15378 ft | 364 kts | 154° |
| 2026-05-07 17:04 | 50.52610 | 7.75204 | 15001 ft | 364 kts | 154° |
| 2026-05-07 17:04 | 50.50360 | 7.77012 | 14622 ft | 360 kts | 154° |
| 2026-05-07 17:05 | 50.48130 | 7.78802 | 14253 ft | 359 kts | 154° |
| 2026-05-07 17:05 | 50.45909 | 7.80583 | 13875 ft | 357 kts | 154° |
| 2026-05-07 17:05 | 50.43724 | 7.82428 | 13483 ft | 356 kts | 149° |
| 2026-05-07 17:05 | 50.41721 | 7.84692 | 13116 ft | 355 kts | 142° |
| 2026-05-07 17:06 | 50.39801 | 7.87100 | 12809 ft | 351 kts | 142° |
| 2026-05-07 17:06 | 50.37921 | 7.89444 | 12672 ft | 338 kts | 142° |
| 2026-05-07 17:06 | 50.36113 | 7.91694 | 12539 ft | 325 kts | 142° |
| 2026-05-07 17:06 | 50.34374 | 7.93851 | 12405 ft | 313 kts | 143° |
| 2026-05-07 17:07 | 50.32737 | 7.96048 | 12080 ft | 309 kts | 131° |
| 2026-05-07 17:07 | 50.31671 | 7.99022 | 11836 ft | 337 kts | 107° |
| 2026-05-07 17:07 | 50.31220 | 8.02731 | 11579 ft | 352 kts | 96° |
| 2026-05-07 17:07 | 50.31007 | 8.06537 | 11341 ft | 349 kts | 94° |
| 2026-05-07 17:08 | 50.30826 | 8.10310 | 11091 ft | 347 kts | 94° |
| 2026-05-07 17:08 | 50.30611 | 8.14063 | 10842 ft | 346 kts | 95° |
| 2026-05-07 17:08 | 50.30359 | 8.17795 | 10597 ft | 345 kts | 96° |
| 2026-05-07 17:08 | 50.30084 | 8.21488 | 10405 ft | 337 kts | 96° |
| 2026-05-07 17:09 | 50.29803 | 8.25097 | 10050 ft | 332 kts | 97° |
| 2026-05-07 17:09 | 50.29521 | 8.28644 | 9688 ft | 325 kts | 97° |
| 2026-05-07 17:09 | 50.29246 | 8.32085 | 9548 ft | 312 kts | 97° |
| 2026-05-07 17:09 | 50.28982 | 8.35382 | 9381 ft | 300 kts | 97° |
| 2026-05-07 17:10 | 50.28724 | 8.38581 | 9188 ft | 291 kts | 97° |
| 2026-05-07 17:10 | 50.28471 | 8.41729 | 9083 ft | 293 kts | 97° |
| 2026-05-07 17:10 | 50.28216 | 8.44883 | 9052 ft | 292 kts | 97° |
| 2026-05-07 17:10 | 50.27961 | 8.48037 | 9026 ft | 292 kts | 97° |
| 2026-05-07 17:11 | 50.27708 | 8.51148 | 8893 ft | 292 kts | 97° |
| 2026-05-07 17:11 | 50.27453 | 8.54272 | 8746 ft | 288 kts | 97° |
| 2026-05-07 17:11 | 50.27198 | 8.57397 | 8580 ft | 291 kts | 97° |
| 2026-05-07 17:11 | 50.26941 | 8.60533 | 8245 ft | 289 kts | 97° |
| 2026-05-07 17:12 | 50.26685 | 8.63630 | 7907 ft | 286 kts | 97° |
| 2026-05-07 17:12 | 50.26432 | 8.66700 | 7702 ft | 284 kts | 97° |
| 2026-05-07 17:12 | 50.26177 | 8.69776 | 7573 ft | 285 kts | 97° |
| 2026-05-07 17:12 | 50.25920 | 8.72865 | 7298 ft | 288 kts | 97° |
| 2026-05-07 17:13 | 50.25662 | 8.75963 | 6955 ft | 286 kts | 97° |
| 2026-05-07 17:13 | 50.25406 | 8.79019 | 6678 ft | 279 kts | 97° |
| 2026-05-07 17:13 | 50.25160 | 8.81945 | 6449 ft | 265 kts | 97° |
| 2026-05-07 17:13 | 50.24925 | 8.84727 | 6206 ft | 251 kts | 97° |
| 2026-05-07 17:14 | 50.24700 | 8.87378 | 5951 ft | 245 kts | 97° |
| 2026-05-07 17:14 | 50.24476 | 8.90028 | 5640 ft | 246 kts | 97° |
| 2026-05-07 17:14 | 50.24144 | 8.92618 | 5324 ft | 243 kts | 114° |
| 2026-05-07 17:14 | 50.23118 | 8.94688 | 5038 ft | 244 kts | 145° |
| 2026-05-07 17:15 | 50.21573 | 8.95656 | 4723 ft | 240 kts | 176° |
| 2026-05-07 17:15 | 50.19909 | 8.95646 | 4394 ft | 240 kts | 184° |
| 2026-05-07 17:15 | 50.18248 | 8.95544 | 4132 ft | 235 kts | 184° |
| 2026-05-07 17:15 | 50.16591 | 8.95434 | 4044 ft | 241 kts | 184° |
| 2026-05-07 17:16 | 50.14949 | 8.95148 | 3996 ft | 235 kts | 201° |
| 2026-05-07 17:16 | 50.13572 | 8.93802 | 4005 ft | 236 kts | 223° |
| 2026-05-07 17:16 | 50.12356 | 8.92132 | 3995 ft | 227 kts | 224° |
| 2026-05-07 17:16 | 50.11217 | 8.90563 | 3996 ft | 210 kts | 224° |
| 2026-05-07 17:17 | 50.10160 | 8.89115 | 3994 ft | 194 kts | 224° |
| 2026-05-07 17:17 | 50.09185 | 8.87784 | 3988 ft | 179 kts | 223° |
| 2026-05-07 17:17 | 50.08237 | 8.86491 | 4008 ft | 185 kts | 224° |
| 2026-05-07 17:17 | 50.07413 | 8.85048 | 4084 ft | 178 kts | 243° |
| 2026-05-07 17:18 | 50.07076 | 8.83224 | 4141 ft | 176 kts | 270° |
| 2026-05-07 17:18 | 50.07112 | 8.81328 | 4340 ft | 175 kts | 274° |
| 2026-05-07 17:18 | 50.07047 | 8.79414 | 4405 ft | 178 kts | 263° |
| 2026-05-07 17:18 | 50.06639 | 8.77609 | 4191 ft | 182 kts | 234° |
| 2026-05-07 17:19 | 50.05588 | 8.76553 | 3968 ft | 181 kts | 190° |
| 2026-05-07 17:19 | 50.04340 | 8.76868 | 3999 ft | 189 kts | 149° |
| 2026-05-07 17:19 | 50.03499 | 8.78347 | 3997 ft | 185 kts | 108° |
| 2026-05-07 17:19 | 50.03390 | 8.80327 | 4004 ft | 187 kts | 84° |
| 2026-05-07 17:20 | 50.03498 | 8.82577 | 3990 ft | 228 kts | 83° |
| 2026-05-07 17:20 | 50.03633 | 8.85102 | 4001 ft | 235 kts | 83° |
| 2026-05-07 17:20 | 50.03768 | 8.87600 | 4000 ft | 235 kts | 83° |
| 2026-05-07 17:20 | 50.03904 | 8.90137 | 4001 ft | 236 kts | 83° |
| 2026-05-07 17:21 | 50.04041 | 8.92677 | 4000 ft | 236 kts | 83° |
| 2026-05-07 17:21 | 50.04176 | 8.95171 | 4000 ft | 236 kts | 83° |
| 2026-05-07 17:21 | 50.04315 | 8.97766 | 3998 ft | 236 kts | 83° |
| 2026-05-07 17:21 | 50.04450 | 9.00310 | 4000 ft | 236 kts | 83° |
| 2026-05-07 17:22 | 50.04586 | 9.02855 | 3999 ft | 236 kts | 83° |
| 2026-05-07 17:22 | 50.04719 | 9.05399 | 3998 ft | 236 kts | 83° |
| 2026-05-07 17:22 | 50.04854 | 9.07938 | 4000 ft | 235 kts | 83° |
| 2026-05-07 17:22 | 50.05079 | 9.10420 | 3989 ft | 233 kts | 68° |
| 2026-05-07 17:23 | 50.05988 | 9.12436 | 4000 ft | 230 kts | 35° |
| 2026-05-07 17:23 | 50.07431 | 9.13367 | 4000 ft | 226 kts | 3° |
| 2026-05-07 17:23 | 50.08952 | 9.12925 | 3993 ft | 225 kts | 330° |
| 2026-05-07 17:23 | 50.10070 | 9.11253 | 4001 ft | 226 kts | 298° |
| 2026-05-07 17:24 | 50.10547 | 9.08915 | 4000 ft | 228 kts | 284° |
| 2026-05-07 17:24 | 50.10886 | 9.06516 | 4000 ft | 226 kts | 283° |
| 2026-05-07 17:24 | 50.11224 | 9.04114 | 4000 ft | 228 kts | 283° |
| 2026-05-07 17:24 | 50.11555 | 9.01742 | 4001 ft | 228 kts | 283° |
| 2026-05-07 17:25 | 50.11878 | 8.99328 | 3999 ft | 227 kts | 281° |
| 2026-05-07 17:25 | 50.12105 | 8.96906 | 3998 ft | 221 kts | 278° |
| 2026-05-07 17:25 | 50.12246 | 8.94562 | 3998 ft | 217 kts | 270° |
| 2026-05-07 17:25 | 50.11987 | 8.92236 | 4000 ft | 221 kts | 252° |
| 2026-05-07 17:26 | 50.11427 | 8.89991 | 4004 ft | 225 kts | 251° |
| 2026-05-07 17:26 | 50.10887 | 8.87768 | 3951 ft | 214 kts | 251° |
| 2026-05-07 17:26 | 50.10408 | 8.85646 | 3867 ft | 201 kts | 253° |
| 2026-05-07 17:26 | 50.09979 | 8.83701 | 3776 ft | 181 kts | 253° |
| 2026-05-07 17:27 | 50.09562 | 8.81918 | 3542 ft | 171 kts | 252° |
| 2026-05-07 17:27 | 50.09157 | 8.80214 | 3315 ft | 165 kts | 252° |
| 2026-05-07 17:27 | 50.08763 | 8.78561 | 3093 ft | 160 kts | 252° |
| 2026-05-07 17:27 | 50.08380 | 8.76958 | 2877 ft | 156 kts | 252° |
| 2026-05-07 17:28 | 50.08007 | 8.75395 | 2669 ft | 153 kts | 252° |
| 2026-05-07 17:28 | 50.07640 | 8.73860 | 2464 ft | 151 kts | 252° |
| 2026-05-07 17:28 | 50.07273 | 8.72316 | 2256 ft | 151 kts | 252° |
| 2026-05-07 17:28 | 50.06923 | 8.70859 | 2064 ft | 138 kts | 252° |
| 2026-05-07 17:29 | 50.06586 | 8.69442 | 1875 ft | 140 kts | 252° |
| 2026-05-07 17:29 | 50.06248 | 8.68026 | 1685 ft | 139 kts | 251° |
| 2026-05-07 17:29 | 50.05912 | 8.66620 | 1483 ft | 140 kts | 251° |
| 2026-05-07 17:29 | 50.05575 | 8.65210 | 1280 ft | 136 kts | 251° |
| 2026-05-07 17:30 | 50.05250 | 8.63832 | 1066 ft | 135 kts | 250° |
| 2026-05-07 17:30 | 50.04934 | 8.62467 | 889 ft | 133 kts | 249° |
| 2026-05-07 17:30 | 50.04607 | 8.61121 | 731 ft | 133 kts | 247° |
| 2026-05-07 17:30 | 50.04272 | 8.59768 | 538 ft | 133 kts | 248° |
| 2026-05-07 17:31 | 50.03949 | 8.58414 | 399 ft | 134 kts | 248° |
| 2026-05-07 17:31 | 50.03637 | 8.57130 | 354 ft | 109 kts | 248° |
| 2026-05-07 17:31 | 50.03442 | 8.56314 | 354 ft | 51 kts | 254° |
| 2026-05-07 17:31 | 50.03385 | 8.56070 | 353 ft | 9 kts | 249° |
| 2026-05-07 17:32 | 50.03347 | 8.55904 | 354 ft | 26 kts | 251° |
| 2026-05-07 17:32 | 50.03309 | 8.55598 | 342 ft | 26 kts | 267° |
| 2026-05-07 17:32 | 50.03309 | 8.55466 | 343 ft | 1 kts | 272° |
| 2026-05-07 17:32 | 50.03310 | 8.55448 | 343 ft | 4 kts | 280° |
| 2026-05-07 17:33 | 50.03323 | 8.55350 | 347 ft | 10 kts | 283° |
| 2026-05-07 17:33 | 50.03337 | 8.55259 | 348 ft | 1 kts | 283° |
| 2026-05-07 17:33 | 50.03338 | 8.55250 | 346 ft | 0 kts | 283° |
| 2026-05-07 17:34 | 50.03338 | 8.55249 | 346 ft | 1 kts | 283° |
| 2026-05-07 17:34 | 50.03357 | 8.55190 | 350 ft | 12 kts | 308° |
| 2026-05-07 17:34 | 50.03389 | 8.55184 | 346 ft | 3 kts | 22° |
| 2026-05-07 17:35 | 50.03426 | 8.55226 | 346 ft | 11 kts | 54° |
| 2026-05-07 17:35 | 50.03463 | 8.55365 | 352 ft | 18 kts | 66° |
| 2026-05-07 17:35 | 50.03517 | 8.55584 | 347 ft | 25 kts | 71° |
| 2026-05-07 17:35 | 50.03586 | 8.55858 | 351 ft | 30 kts | 70° |
| 2026-05-07 17:36 | 50.03664 | 8.56183 | 352 ft | 34 kts | 69° |
| 2026-05-07 17:36 | 50.03750 | 8.56543 | 359 ft | 36 kts | 70° |
| 2026-05-07 17:36 | 50.03834 | 8.56904 | 355 ft | 36 kts | 69° |
| 2026-05-07 17:36 | 50.03918 | 8.57252 | 360 ft | 34 kts | 70° |
| 2026-05-07 17:37 | 50.03999 | 8.57595 | 367 ft | 33 kts | 70° |
| 2026-05-07 17:37 | 50.04071 | 8.57910 | 369 ft | 33 kts | 69° |
| 2026-05-07 17:37 | 50.04118 | 8.58094 | 371 ft | 0 kts | 66° |
| 2026-05-07 17:37 | 50.04122 | 8.58108 | 371 ft | 3 kts | 66° |
| 2026-05-07 17:38 | 50.04142 | 8.58184 | 371 ft | 13 kts | 68° |
| 2026-05-07 17:38 | 50.04190 | 8.58381 | 371 ft | 25 kts | 71° |
| 2026-05-07 17:38 | 50.04255 | 8.58594 | 369 ft | 8 kts | 15° |
| 2026-05-07 17:38 | 50.04278 | 8.58642 | 369 ft | 8 kts | 89° |
| 2026-05-07 17:39 | 50.04303 | 8.58831 | 373 ft | 22 kts | 49° |
| 2026-05-07 17:39 | 50.04351 | 8.59069 | 377 ft | 25 kts | 74° |
| 2026-05-07 17:39 | 50.04413 | 8.59337 | 375 ft | 13 kts | 69° |
| 2026-05-07 17:39 | 50.04455 | 8.59454 | 375 ft | 14 kts | 38° |
| 2026-05-07 17:40 | 50.04544 | 8.59469 | 373 ft | 6 kts | 358° |
| 2026-05-07 17:40 | 50.04553 | 8.59468 | 373 ft | 0 kts | 357° |
| 2026-05-07 17:43 | 50.04556 | 8.59468 | 373 ft | 2 kts | 357° |
| 2026-05-07 17:44 | 50.04608 | 8.59464 | 372 ft | 13 kts | 357° |
| 2026-05-07 17:44 | 50.04727 | 8.59428 | 372 ft | 22 kts | 342° |
| 2026-05-07 17:44 | 50.04868 | 8.59352 | 368 ft | 22 kts | 2° |
| 2026-05-07 17:44 | 50.05022 | 8.59283 | 366 ft | 26 kts | 340° |
| 2026-05-07 17:45 | 50.05047 | 8.59156 | 359 ft | 11 kts | 236° |
| 2026-05-07 17:45 | 50.05017 | 8.58989 | 363 ft | 21 kts | 257° |
| 2026-05-07 17:45 | 50.04967 | 8.58762 | 360 ft | 23 kts | 259° |
| 2026-05-07 17:45 | 50.04913 | 8.58518 | 362 ft | 25 kts | 248° |
| 2026-05-07 17:46 | 50.04845 | 8.58323 | 366 ft | 19 kts | 249° |
| 2026-05-07 17:46 | 50.04801 | 8.58158 | 366 ft | 5 kts | 225° |
| 2026-05-07 17:46 | 50.04793 | 8.58164 | 364 ft | 0 kts | 158° |
| 2026-05-07 17:46 | 50.04778 | 8.58165 | 360 ft | 7 kts | 175° |
| 2026-05-07 17:47 | 50.04743 | 8.58177 | 363 ft | 3 kts | 160° |
| 2026-05-07 17:47 | 50.04739 | 8.58179 | 365 ft | 0 kts | 160° |